createdAt,value
2023-05-20T00:00:05.547Z,9.66
2023-05-20T00:02:32.039Z,9.65
2023-05-20T00:04:58.531Z,9.66
2023-05-20T00:07:25.016Z,9.65
2023-05-20T00:09:51.731Z,9.65
2023-05-20T00:12:18.390Z,9.65
2023-05-20T00:14:44.855Z,9.68
2023-05-20T00:17:11.288Z,9.65
2023-05-20T00:19:37.742Z,9.66
2023-05-20T00:22:04.167Z,9.66
2023-05-20T00:24:30.570Z,9.66
2023-05-20T00:26:57.004Z,9.65
2023-05-20T00:29:23.425Z,9.65
2023-05-20T00:31:50.164Z,9.63
2023-05-20T00:34:16.637Z,9.66
2023-05-20T00:36:43.275Z,9.66
2023-05-20T00:39:09.689Z,9.65
2023-05-20T00:41:36.109Z,9.65
2023-05-20T00:44:02.531Z,9.63
2023-05-20T00:46:29.457Z,9.65
2023-05-20T00:48:56.078Z,9.66
2023-05-20T00:51:22.483Z,9.65
2023-05-20T00:53:49.128Z,9.63
2023-05-20T00:56:15.537Z,9.66
2023-05-20T00:58:42.058Z,9.66
2023-05-20T01:01:08.514Z,9.68
2023-05-20T01:03:35.105Z,9.63
2023-05-20T01:06:01.766Z,9.63
2023-05-20T01:08:28.196Z,9.65
2023-05-20T01:10:54.850Z,9.63
2023-05-20T01:13:21.262Z,9.65
2023-05-20T01:15:48.468Z,9.66
2023-05-20T01:18:15.000Z,9.63
2023-05-20T01:20:41.396Z,9.65
2023-05-20T01:23:07.848Z,9.66
2023-05-20T01:25:34.492Z,9.63
2023-05-20T01:28:01.004Z,9.65
2023-05-20T01:30:27.439Z,9.63
2023-05-20T01:32:53.904Z,9.63
2023-05-20T01:35:20.527Z,9.63
2023-05-20T01:37:47.142Z,9.63
2023-05-20T01:40:13.678Z,9.66
2023-05-20T01:42:40.095Z,9.65
2023-05-20T01:45:07.056Z,9.62
2023-05-20T01:47:33.711Z,9.66
2023-05-20T01:50:00.195Z,9.68
2023-05-20T01:52:26.877Z,9.65
2023-05-20T01:54:53.293Z,9.65
2023-05-20T01:57:19.924Z,9.65
2023-05-20T01:59:46.576Z,9.65
2023-05-20T02:02:13.111Z,9.65
2023-05-20T02:04:39.544Z,9.66
2023-05-20T02:07:05.957Z,9.66
2023-05-20T02:09:32.369Z,9.65
2023-05-20T02:11:58.761Z,9.66
2023-05-20T02:14:25.164Z,9.63
2023-05-20T02:16:51.870Z,9.65
2023-05-20T02:19:18.375Z,9.63
2023-05-20T02:21:44.813Z,9.63
2023-05-20T02:24:11.241Z,9.63
2023-05-20T02:26:37.909Z,9.66
2023-05-20T02:29:04.969Z,9.62
2023-05-20T02:31:31.376Z,9.65
2023-05-20T02:33:58.095Z,9.63
2023-05-20T02:36:24.530Z,9.65
2023-05-20T02:38:51.175Z,9.66
2023-05-20T02:41:17.804Z,9.62
2023-05-20T02:46:31.269Z,9.66
2023-05-20T02:48:57.765Z,9.61
2023-05-20T02:51:24.196Z,9.63
2023-05-20T02:53:50.851Z,9.65
2023-05-20T02:56:17.510Z,9.66
2023-05-20T02:58:43.922Z,9.65
2023-05-20T03:01:10.392Z,9.65
2023-05-20T03:03:36.867Z,9.63
2023-05-20T03:06:03.274Z,9.63
2023-05-20T03:08:29.688Z,9.65
2023-05-20T03:10:56.162Z,9.66
2023-05-20T03:13:22.580Z,9.63
2023-05-20T03:15:49.001Z,9.65
2023-05-20T03:18:15.388Z,9.66
2023-05-20T03:20:41.815Z,9.62
2023-05-20T03:23:08.383Z,9.63
2023-05-20T03:25:35.260Z,9.65
2023-05-20T03:28:01.895Z,9.63
2023-05-20T03:30:28.346Z,9.62
2023-05-20T03:32:54.822Z,9.63
2023-05-20T03:35:21.234Z,9.62
2023-05-20T03:37:47.653Z,9.65
2023-05-20T03:40:14.093Z,9.65
2023-05-20T03:42:40.773Z,9.62
2023-05-20T03:45:07.204Z,9.66
2023-05-20T03:47:33.853Z,9.63
2023-05-20T03:50:00.497Z,9.63
2023-05-20T03:52:26.936Z,9.62
2023-05-20T03:54:53.572Z,9.65
2023-05-20T03:57:19.999Z,9.63
2023-05-20T03:59:46.419Z,9.66
2023-05-20T04:02:12.910Z,9.62
2023-05-20T04:04:39.582Z,9.63
2023-05-20T04:07:06.000Z,9.65
2023-05-20T04:09:32.664Z,9.65
2023-05-20T04:11:59.141Z,9.62
2023-05-20T04:14:25.823Z,9.63
2023-05-20T04:16:52.278Z,9.63
2023-05-20T04:19:18.928Z,9.63
2023-05-20T04:21:45.343Z,9.63
2023-05-20T04:24:11.959Z,9.63
2023-05-20T04:26:38.359Z,9.65
2023-05-20T04:29:04.994Z,9.62
2023-05-20T04:31:31.442Z,9.63
2023-05-20T04:33:58.345Z,9.66
2023-05-20T04:36:24.805Z,9.66
2023-05-20T04:38:51.240Z,9.66
2023-05-20T04:41:17.640Z,9.66
2023-05-20T04:43:44.032Z,9.65
2023-05-20T04:46:10.507Z,9.66
2023-05-20T04:48:37.153Z,9.63
2023-05-20T04:51:03.582Z,9.62
2023-05-20T04:53:30.023Z,9.63
2023-05-20T04:55:56.447Z,9.63
2023-05-20T04:58:22.870Z,9.63
2023-05-20T05:00:49.285Z,9.65
2023-05-20T05:03:15.737Z,9.65
2023-05-20T05:05:42.215Z,9.62
2023-05-20T05:08:08.657Z,9.63
2023-05-20T05:10:35.090Z,9.62
2023-05-20T05:13:01.500Z,9.65
2023-05-20T05:15:27.904Z,9.62
2023-05-20T05:17:54.353Z,9.66
2023-05-20T05:20:20.805Z,9.63
2023-05-20T05:22:47.228Z,9.65
2023-05-20T05:25:13.649Z,9.63
2023-05-20T05:27:40.083Z,9.63
2023-05-20T05:30:06.754Z,9.65
2023-05-20T05:32:33.287Z,9.65
2023-05-20T05:34:59.724Z,9.65
2023-05-20T05:37:26.375Z,9.65
2023-05-20T05:39:52.800Z,9.63
2023-05-20T05:42:19.244Z,9.68
2023-05-20T05:44:45.687Z,9.65
2023-05-20T05:47:12.401Z,9.65
2023-05-20T05:49:38.938Z,9.65
2023-05-20T05:52:05.585Z,9.66
2023-05-20T05:54:32.019Z,9.66
2023-05-20T05:56:58.660Z,9.65
2023-05-20T05:59:25.094Z,9.66
2023-05-20T06:01:51.573Z,9.66
2023-05-20T06:04:18.107Z,9.65
2023-05-20T06:06:44.759Z,9.66
2023-05-20T06:09:11.393Z,9.69
2023-05-20T06:11:38.031Z,9.68
2023-05-20T06:14:04.460Z,9.68
2023-05-20T06:16:30.916Z,9.66
2023-05-20T06:18:57.504Z,9.66
2023-05-20T06:21:24.048Z,9.68
2023-05-20T06:23:51.271Z,9.66
2023-05-20T06:26:17.702Z,9.66
2023-05-20T06:28:44.328Z,9.65
2023-05-20T06:31:10.811Z,9.68
2023-05-20T06:33:37.496Z,9.68
2023-05-20T06:36:03.895Z,9.68
2023-05-20T06:38:30.542Z,9.66
2023-05-20T06:40:57.167Z,9.65
2023-05-20T06:43:23.569Z,9.65
2023-05-20T06:45:49.991Z,9.69
2023-05-20T06:48:16.415Z,9.68
2023-05-20T06:50:42.824Z,9.68
2023-05-20T06:53:09.226Z,9.65
2023-05-20T06:55:35.899Z,9.66
2023-05-20T06:58:02.516Z,9.66
2023-05-20T07:00:29.230Z,9.68
2023-05-20T07:02:55.673Z,9.66
2023-05-20T07:05:22.106Z,9.68
2023-05-20T07:07:48.555Z,9.68
2023-05-20T07:10:14.936Z,9.66
2023-05-20T07:12:41.337Z,9.68
2023-05-20T07:15:07.762Z,9.65
2023-05-20T07:17:34.232Z,9.66
2023-05-20T07:20:00.642Z,9.66
2023-05-20T07:22:27.047Z,9.66
2023-05-20T07:24:53.445Z,9.68
2023-05-20T07:27:19.857Z,9.66
2023-05-20T07:29:46.264Z,9.68
2023-05-20T07:32:12.702Z,9.68
2023-05-20T07:34:39.330Z,9.68
2023-05-20T07:37:05.748Z,9.69
2023-05-20T07:39:32.176Z,9.68
2023-05-20T07:41:58.602Z,9.69
2023-05-20T07:44:25.030Z,9.69
2023-05-20T07:46:51.419Z,9.68
2023-05-20T07:49:18.057Z,9.69
2023-05-20T07:51:44.696Z,9.69
2023-05-20T07:54:11.324Z,9.69
2023-05-20T07:56:37.725Z,9.71
2023-05-20T07:59:04.438Z,9.72
2023-05-20T08:01:30.873Z,9.68
2023-05-20T08:03:57.446Z,9.69
2023-05-20T08:06:24.188Z,9.68
2023-05-20T08:08:50.596Z,9.71
2023-05-20T08:11:17.248Z,9.69
2023-05-20T08:13:43.690Z,9.71
2023-05-20T08:16:10.121Z,9.72
2023-05-20T08:18:36.568Z,9.68
2023-05-20T08:21:03.214Z,9.71
2023-05-20T08:23:29.666Z,9.68
2023-05-20T08:25:56.288Z,9.71
2023-05-20T08:28:22.920Z,9.69
2023-05-20T08:30:49.352Z,9.71
2023-05-20T08:33:15.797Z,9.71
2023-05-20T08:35:42.278Z,9.72
2023-05-20T08:38:08.701Z,9.71
2023-05-20T08:40:35.182Z,9.72
2023-05-20T08:43:01.630Z,9.71
2023-05-20T08:45:28.065Z,9.72
2023-05-20T08:47:54.513Z,9.72
2023-05-20T08:50:20.950Z,9.73
2023-05-20T08:52:47.618Z,9.71
2023-05-20T08:55:14.043Z,9.71
2023-05-20T08:57:41.199Z,9.71
2023-05-20T09:00:07.646Z,9.73
2023-05-20T09:02:34.091Z,9.72
2023-05-20T09:05:00.789Z,9.73
2023-05-20T09:07:27.255Z,9.72
2023-05-20T09:09:53.682Z,9.73
2023-05-20T09:12:20.104Z,9.73
2023-05-20T09:14:46.523Z,9.72
2023-05-20T09:17:12.956Z,9.73
2023-05-20T09:19:39.400Z,9.75
2023-05-20T09:22:05.816Z,9.75
2023-05-20T09:24:32.233Z,9.76
2023-05-20T09:26:58.676Z,9.73
2023-05-20T09:29:25.083Z,9.78
2023-05-20T09:31:51.548Z,9.75
2023-05-20T09:34:18.012Z,9.75
2023-05-20T09:36:44.608Z,9.76
2023-05-20T09:39:11.024Z,9.78
2023-05-20T09:41:38.383Z,9.78
2023-05-20T09:44:04.782Z,9.76
2023-05-20T09:46:31.992Z,9.75
2023-05-20T09:48:58.494Z,9.78
2023-05-20T09:51:25.172Z,9.78
2023-05-20T09:53:51.572Z,9.75
2023-05-20T09:56:17.994Z,9.78
2023-05-20T09:58:44.396Z,9.76
2023-05-20T10:01:10.822Z,9.73
2023-05-20T10:03:37.380Z,9.78
2023-05-20T10:06:03.986Z,9.78
2023-05-20T10:08:30.421Z,9.79
2023-05-20T10:10:56.840Z,9.78
2023-05-20T10:13:23.268Z,9.78
2023-05-20T10:15:49.722Z,9.78
2023-05-20T10:18:16.196Z,9.78
2023-05-20T10:20:42.617Z,9.76
2023-05-20T10:23:09.092Z,9.79
2023-05-20T10:25:35.644Z,9.79
2023-05-20T10:28:02.216Z,9.78
2023-05-20T10:30:28.620Z,9.79
2023-05-20T10:32:55.282Z,9.82
2023-05-20T10:35:22.046Z,9.81
2023-05-20T10:37:48.696Z,9.82
2023-05-20T10:40:15.191Z,9.82
2023-05-20T10:42:41.831Z,9.82
2023-05-20T10:45:08.285Z,9.82
2023-05-20T10:47:34.754Z,9.83
2023-05-20T10:50:01.655Z,9.81
2023-05-20T10:52:28.076Z,9.79
2023-05-20T10:54:54.550Z,9.79
2023-05-20T10:57:21.029Z,9.79
2023-05-20T10:59:47.672Z,9.82
2023-05-20T11:02:14.093Z,9.82
2023-05-20T11:04:40.512Z,9.83
2023-05-20T11:07:06.953Z,9.83
2023-05-20T11:09:33.377Z,9.86
2023-05-20T11:12:00.061Z,9.83
2023-05-20T11:14:26.527Z,9.83
2023-05-20T11:16:53.015Z,9.85
2023-05-20T11:19:19.548Z,9.86
2023-05-20T11:21:46.020Z,9.85
2023-05-20T11:24:12.684Z,9.86
2023-05-20T11:26:39.121Z,9.86
2023-05-20T11:29:05.535Z,9.86
2023-05-20T11:31:32.024Z,9.90
2023-05-20T11:33:58.494Z,9.86
2023-05-20T11:36:27.808Z,9.89
2023-05-20T11:38:54.710Z,9.89
2023-05-20T11:41:21.131Z,9.90
2023-05-20T11:43:47.549Z,9.90
2023-05-20T11:46:14.193Z,9.92
2023-05-20T11:48:40.899Z,9.89
2023-05-20T11:51:07.311Z,9.92
2023-05-20T11:53:33.745Z,9.90
2023-05-20T11:56:00.232Z,9.92
2023-05-20T11:58:26.914Z,9.92
2023-05-20T12:00:59.467Z,9.93
2023-05-20T12:03:32.157Z,9.94
2023-05-20T12:08:46.088Z,9.92
2023-05-20T12:11:12.703Z,9.93
2023-05-20T12:13:39.123Z,9.93
2023-05-20T12:16:05.593Z,9.94
2023-05-20T12:18:32.253Z,9.96
2023-05-20T12:20:58.655Z,10.00
2023-05-20T12:23:25.296Z,9.99
2023-05-20T12:25:51.919Z,9.97
2023-05-20T12:28:18.563Z,9.99
2023-05-20T12:30:44.998Z,9.96
2023-05-20T12:33:11.469Z,9.96
2023-05-20T12:35:37.911Z,9.97
2023-05-20T12:38:04.361Z,9.97
2023-05-20T12:40:30.788Z,9.99
2023-05-20T12:42:57.239Z,9.99
2023-05-20T12:45:23.666Z,9.97
2023-05-20T12:47:50.127Z,9.99
2023-05-20T12:50:16.549Z,9.97
2023-05-20T12:52:42.970Z,9.99
2023-05-20T12:55:09.401Z,10.04
2023-05-20T12:57:35.836Z,10.04
2023-05-20T13:00:02.279Z,10.04
2023-05-20T13:02:28.850Z,9.99
2023-05-20T13:04:55.327Z,10.02
2023-05-20T13:07:21.738Z,9.99
2023-05-20T13:09:48.349Z,10.02
2023-05-20T13:12:14.796Z,10.03
2023-05-20T13:14:41.200Z,10.06
2023-05-20T13:17:07.720Z,10.04
2023-05-20T13:19:35.326Z,10.07
2023-05-20T13:22:01.999Z,10.07
2023-05-20T13:24:28.422Z,10.06
2023-05-20T13:26:54.859Z,10.04
2023-05-20T13:29:21.297Z,10.03
2023-05-20T13:31:47.715Z,10.02
2023-05-20T13:34:14.166Z,10.04
2023-05-20T13:36:40.790Z,10.03
2023-05-20T13:39:07.191Z,10.04
2023-05-20T13:41:33.614Z,10.06
2023-05-20T13:44:00.023Z,10.04
2023-05-20T13:46:26.445Z,10.04
2023-05-20T13:48:52.879Z,10.03
2023-05-20T13:51:19.286Z,10.04
2023-05-20T13:53:45.714Z,10.04
2023-05-20T13:56:12.138Z,10.03
2023-05-20T13:58:38.577Z,10.04
2023-05-20T14:01:05.055Z,10.02
2023-05-20T14:03:31.584Z,10.02
2023-05-20T14:05:58.047Z,10.03
2023-05-20T14:08:24.468Z,10.02
2023-05-20T14:10:50.881Z,10.03
2023-05-20T14:13:17.648Z,10.04
2023-05-20T14:15:44.112Z,10.00
2023-05-20T14:18:10.567Z,10.03
2023-05-20T14:20:37.172Z,10.02
2023-05-20T14:23:03.867Z,10.03
2023-05-20T14:25:30.267Z,10.02
2023-05-20T14:27:56.672Z,10.04
2023-05-20T14:30:23.086Z,10.03
2023-05-20T14:32:49.787Z,10.02
2023-05-20T14:35:16.260Z,10.02
2023-05-20T14:37:42.671Z,10.02
2023-05-20T14:40:09.313Z,10.02
2023-05-20T14:42:35.733Z,10.00
2023-05-20T14:45:02.201Z,10.03
2023-05-20T14:47:28.687Z,10.02
2023-05-20T14:49:55.134Z,10.00
2023-05-20T14:52:21.565Z,9.99
2023-05-20T14:54:48.026Z,10.02
2023-05-20T14:57:14.437Z,10.02
2023-05-20T14:59:40.881Z,10.02
2023-05-20T15:02:07.337Z,10.04
2023-05-20T15:04:33.800Z,10.04
2023-05-20T15:07:00.225Z,10.03
2023-05-20T15:09:27.019Z,10.04
2023-05-20T15:11:53.441Z,10.03
2023-05-20T15:14:19.862Z,10.06
2023-05-20T15:16:46.310Z,10.06
2023-05-20T15:19:12.772Z,10.07
2023-05-20T15:21:39.216Z,10.04
2023-05-20T15:24:05.659Z,10.04
2023-05-20T15:26:32.090Z,10.04
2023-05-20T15:28:58.485Z,10.06
2023-05-20T15:31:24.900Z,10.04
2023-05-20T15:33:51.464Z,10.04
2023-05-20T15:36:17.992Z,10.06
2023-05-20T15:38:44.433Z,10.07
2023-05-20T15:41:11.088Z,10.06
2023-05-20T15:43:37.537Z,10.04
2023-05-20T15:46:04.023Z,10.04
2023-05-20T15:48:30.460Z,10.06
2023-05-20T15:50:56.882Z,10.02
2023-05-20T15:53:23.287Z,10.04
2023-05-20T15:55:49.744Z,10.02
2023-05-20T15:58:16.153Z,10.04
2023-05-20T16:00:42.561Z,10.04
2023-05-20T16:03:09.077Z,10.06
2023-05-20T16:05:35.749Z,10.03
2023-05-20T16:08:02.353Z,10.04
2023-05-20T16:10:28.974Z,10.06
2023-05-20T16:12:55.386Z,10.04
2023-05-20T16:15:21.808Z,10.03
2023-05-20T16:17:48.275Z,10.04
2023-05-20T16:20:14.723Z,10.07
2023-05-20T16:22:41.159Z,10.04
2023-05-20T16:25:07.589Z,10.03
2023-05-20T16:27:34.002Z,10.06
2023-05-20T16:30:00.532Z,10.04
2023-05-20T16:32:27.070Z,10.06
2023-05-20T16:34:53.578Z,10.06
2023-05-20T16:37:19.999Z,10.07
2023-05-20T16:39:46.449Z,10.04
2023-05-20T16:42:13.062Z,10.06
2023-05-20T16:44:39.486Z,10.09
2023-05-20T16:47:06.699Z,10.06
2023-05-20T16:49:33.122Z,10.07
2023-05-20T16:51:59.622Z,10.07
2023-05-20T16:54:26.294Z,10.03
2023-05-20T16:56:52.707Z,10.07
2023-05-20T16:59:19.151Z,10.09
2023-05-20T17:01:45.599Z,10.06
2023-05-20T17:04:12.061Z,10.06
2023-05-20T17:06:38.709Z,10.06
2023-05-20T17:09:05.121Z,10.07
2023-05-20T17:11:31.557Z,10.07
2023-05-20T17:13:57.983Z,10.03
2023-05-20T17:16:24.435Z,10.06
2023-05-20T17:18:50.962Z,10.03
2023-05-20T17:21:17.409Z,10.04
2023-05-20T17:23:43.804Z,10.04
2023-05-20T17:26:10.234Z,10.06
2023-05-20T17:28:36.638Z,10.03
2023-05-20T17:31:03.050Z,10.03
2023-05-20T17:33:29.812Z,10.03
2023-05-20T17:35:56.290Z,10.04
2023-05-20T17:38:22.727Z,10.03
2023-05-20T17:40:49.144Z,10.03
2023-05-20T17:43:15.574Z,10.03
2023-05-20T17:45:42.006Z,10.04
2023-05-20T17:48:10.916Z,10.03
2023-05-20T17:50:38.297Z,10.03
2023-05-20T17:53:04.690Z,10.06
2023-05-20T17:55:31.112Z,10.03
2023-05-20T17:57:57.538Z,10.03
2023-05-20T18:00:24.039Z,10.04
2023-05-20T18:02:50.569Z,10.03
2023-05-20T18:05:17.078Z,10.02
2023-05-20T18:07:43.508Z,10.02
2023-05-20T18:10:09.926Z,10.03
2023-05-20T18:12:36.359Z,10.02
2023-05-20T18:15:02.807Z,10.02
2023-05-20T18:17:29.270Z,10.03
2023-05-20T18:19:55.712Z,10.02
2023-05-20T18:22:22.119Z,10.00
2023-05-20T18:24:48.555Z,10.00
2023-05-20T18:27:14.976Z,10.03
2023-05-20T18:29:41.411Z,10.04
2023-05-20T18:32:07.893Z,10.03
2023-05-20T18:34:34.455Z,10.00
2023-05-20T18:37:00.876Z,10.00
2023-05-20T18:39:27.428Z,9.99
2023-05-20T18:41:54.089Z,10.03
2023-05-20T18:44:20.523Z,10.03
2023-05-20T18:46:47.137Z,10.00
2023-05-20T18:49:13.520Z,10.02
2023-05-20T18:51:40.935Z,10.00
2023-05-20T18:54:07.350Z,10.02
2023-05-20T18:56:33.964Z,9.97
2023-05-20T18:59:00.380Z,10.02
2023-05-20T19:01:26.835Z,9.99
2023-05-20T19:03:53.315Z,10.00
2023-05-20T19:06:19.924Z,10.02
2023-05-20T19:08:46.314Z,9.99
2023-05-20T19:11:12.951Z,10.00
2023-05-20T19:13:39.430Z,10.00
2023-05-20T19:16:05.868Z,10.00
2023-05-20T19:18:32.282Z,9.97
2023-05-20T19:20:58.715Z,10.00
2023-05-20T19:23:25.381Z,9.99
2023-05-20T19:25:52.014Z,10.00
2023-05-20T19:28:18.453Z,9.97
2023-05-20T19:30:44.946Z,9.99
2023-05-20T19:33:11.697Z,9.96
2023-05-20T19:35:38.338Z,9.97
2023-05-20T19:38:04.900Z,9.99
2023-05-20T19:40:31.386Z,9.96
2023-05-20T19:42:57.856Z,10.00
2023-05-20T19:45:24.298Z,9.97
2023-05-20T19:47:50.743Z,9.97
2023-05-20T19:50:17.214Z,9.99
2023-05-20T19:52:43.633Z,9.97
2023-05-20T19:55:10.059Z,9.97
2023-05-20T19:57:36.465Z,9.96
2023-05-20T20:00:02.898Z,9.96
2023-05-20T20:02:29.570Z,9.99
2023-05-20T20:04:56.002Z,9.97
2023-05-20T20:07:22.656Z,9.99
2023-05-20T20:09:49.091Z,9.97
2023-05-20T20:12:15.524Z,9.97
2023-05-20T20:14:41.959Z,9.94
2023-05-20T20:17:08.374Z,9.97
2023-05-20T20:19:34.867Z,9.96
2023-05-20T20:22:01.307Z,9.96
2023-05-20T20:24:27.703Z,9.94
2023-05-20T20:26:54.324Z,9.96
2023-05-20T20:29:20.764Z,9.94
2023-05-20T20:31:47.260Z,9.94
2023-05-20T20:34:13.697Z,9.94
2023-05-20T20:36:40.115Z,9.97
2023-05-20T20:39:06.514Z,9.94
2023-05-20T20:41:32.928Z,9.94
2023-05-20T20:43:59.340Z,9.97
2023-05-20T20:46:25.983Z,9.94
2023-05-20T20:48:52.427Z,9.97
2023-05-20T20:51:19.079Z,9.94
2023-05-20T20:53:45.509Z,9.96
2023-05-20T20:56:11.940Z,9.96
2023-05-20T20:58:38.394Z,9.97
2023-05-20T21:01:05.099Z,9.96
2023-05-20T21:03:31.523Z,9.93
2023-05-20T21:05:57.957Z,9.96
2023-05-20T21:08:24.588Z,9.96
2023-05-20T21:10:51.016Z,9.93
2023-05-20T21:13:17.447Z,9.94
2023-05-20T21:15:43.861Z,9.96
2023-05-20T21:18:10.467Z,9.96
2023-05-20T21:20:36.891Z,9.94
2023-05-20T21:23:03.306Z,9.96
2023-05-20T21:25:29.712Z,9.93
2023-05-20T21:27:56.124Z,9.97
2023-05-20T21:30:22.825Z,9.96
2023-05-20T21:32:49.301Z,9.93
2023-05-20T21:35:16.015Z,9.94
2023-05-20T21:37:42.445Z,9.94
2023-05-20T21:40:09.119Z,9.93
2023-05-20T21:42:35.564Z,9.93
2023-05-20T21:45:02.753Z,9.93
2023-05-20T21:47:29.195Z,9.93
2023-05-20T21:49:55.621Z,9.93
2023-05-20T21:52:22.801Z,9.92
2023-05-20T21:54:49.417Z,9.94
2023-05-20T21:57:16.032Z,9.93
2023-05-20T21:59:42.466Z,9.94
2023-05-20T22:02:09.151Z,9.92
2023-05-20T22:04:35.810Z,9.96
2023-05-20T22:07:02.242Z,9.94
2023-05-20T22:09:28.690Z,9.96
2023-05-20T22:11:55.120Z,9.94
2023-05-20T22:14:21.534Z,9.94
2023-05-20T22:16:48.033Z,9.94
2023-05-20T22:19:14.672Z,9.97
2023-05-20T22:21:49.625Z,9.94
2023-05-20T22:24:17.584Z,9.94
2023-05-20T22:26:44.124Z,9.94
2023-05-20T22:29:13.564Z,9.94
2023-05-20T22:31:40.042Z,9.94
2023-05-20T22:34:06.457Z,9.93
2023-05-20T22:36:32.891Z,9.94
2023-05-20T22:38:59.307Z,9.93
2023-05-20T22:41:25.962Z,9.90
2023-05-20T22:43:52.392Z,9.92
2023-05-20T22:46:18.889Z,9.90
2023-05-20T22:48:45.331Z,9.93
2023-05-20T22:51:11.741Z,9.96
2023-05-20T22:53:38.177Z,9.96
2023-05-20T22:56:04.600Z,9.93
2023-05-20T22:58:30.991Z,9.93
2023-05-20T23:00:57.469Z,9.93
2023-05-20T23:03:23.903Z,9.94
2023-05-20T23:05:50.541Z,9.93
2023-05-20T23:08:16.933Z,9.93
2023-05-20T23:10:43.338Z,9.92
2023-05-20T23:13:09.966Z,9.92
2023-05-20T23:15:36.921Z,9.96
2023-05-20T23:18:03.612Z,9.94
2023-05-20T23:20:30.419Z,9.92
2023-05-20T23:22:56.856Z,9.93
2023-05-20T23:25:23.298Z,9.94
2023-05-20T23:27:49.729Z,9.93
2023-05-20T23:30:16.360Z,9.93
2023-05-20T23:32:43.028Z,9.94
2023-05-20T23:35:09.497Z,9.93
2023-05-20T23:37:36.131Z,9.92
2023-05-20T23:40:02.564Z,9.93
2023-05-20T23:42:29.252Z,9.94
2023-05-20T23:44:55.728Z,9.93
2023-05-20T23:47:22.372Z,9.93
2023-05-20T23:49:49.615Z,9.94
2023-05-20T23:52:16.118Z,9.90
2023-05-20T23:54:42.804Z,9.93
2023-05-20T23:57:09.429Z,9.93
2023-05-20T23:59:35.845Z,9.94
